SBMQ/MCP METAR and TAF weather

Enter ICAO airport designator
Station Type Date Time Source
SBMQ METAR 2019/04/20 22:00 UTC NOAA

SBMQ 202200Z 07008KT 9999 FEW013 28/27 Q1010


Station Type Date Time Source
SBMQ Decoded METAR 2019/04/20 22:00 UTC NOAA

Macapa, Brazil (SBMQ) 00-02N 050-03W
Apr 20, 2019 - 06:00 PM EDT / 2019.04.20 2200 UTC
Wind: from the ENE (070 degrees) at 9 MPH (8 KT):0
Visibility: greater than 7 mile(s):0
Sky conditions: mostly clear
Temperature: 82 F (28 C)
Dew Point: 80 F (27 C)
Relative Humidity: 94%
Pressure (altimeter): 29.83 in. Hg (1010 hPa)
ob: SBMQ 202200Z 07008KT 9999 FEW013 28/27 Q1010
cycle: 22

Station Type Date Time Source
SBMQ TAF 2019/04/20 18:54 UTC NOAA

TAF SBMQ 201600Z 2018/2118 06008KT 8000 SCT015 TN25/2108Z TX31/2117Z
BECMG 2023/2101 02003KT SCT008 SCT020 PROB40 2104/2106 BKN006
BECMG 2107/2109 06007KT SCT006 BKN015 PROB40 2114/2116 4500 BR BKN008
RMK PEO

Example: see airport list